createdAt,value
2018-05-15T00:00:13.986Z,14.80
2018-05-15T00:02:41.954Z,14.70
2018-05-15T00:05:09.820Z,14.50
2018-05-15T00:07:37.613Z,14.40
2018-05-15T00:10:05.554Z,14.40
2018-05-15T00:12:33.428Z,14.40
2018-05-15T00:15:01.289Z,14.50
2018-05-15T00:17:29.154Z,14.50
2018-05-15T00:19:57.021Z,14.50
2018-05-15T00:22:24.887Z,14.40
2018-05-15T00:24:52.754Z,14.40
2018-05-15T00:27:20.544Z,14.40
2018-05-15T00:29:48.416Z,14.40
2018-05-15T00:32:16.177Z,14.40
2018-05-15T00:34:44.015Z,14.40
2018-05-15T00:37:11.883Z,14.40
2018-05-15T00:39:39.748Z,14.40
2018-05-15T00:42:07.615Z,14.40
2018-05-15T00:44:35.579Z,14.30
2018-05-15T00:47:04.166Z,14.40
2018-05-15T00:49:32.033Z,14.40
2018-05-15T00:51:59.824Z,14.40
2018-05-15T00:54:27.881Z,14.40
2018-05-15T00:56:57.271Z,14.20
2018-05-15T00:59:25.138Z,14.20
2018-05-15T01:01:53.004Z,14.30
2018-05-15T01:04:20.762Z,14.30
2018-05-15T01:06:48.639Z,14.30
2018-05-15T01:09:16.528Z,14.30
2018-05-15T01:11:44.471Z,14.40
2018-05-15T01:14:12.338Z,14.40
2018-05-15T01:16:40.307Z,14.30
2018-05-15T01:19:08.172Z,14.30
2018-05-15T01:21:36.040Z,14.40
2018-05-15T01:24:03.906Z,14.40
2018-05-15T01:26:31.881Z,14.40
2018-05-15T01:28:59.742Z,14.40
2018-05-15T01:31:27.492Z,14.40
2018-05-15T01:33:55.476Z,14.50
2018-05-15T01:36:23.343Z,14.50
2018-05-15T01:38:54.138Z,14.50
2018-05-15T01:41:23.309Z,14.40
2018-05-15T01:43:54.219Z,14.50
2018-05-15T01:46:23.846Z,14.50
2018-05-15T01:48:51.690Z,14.50
2018-05-15T01:51:19.553Z,14.50
2018-05-15T01:53:47.419Z,14.50
2018-05-15T01:56:15.285Z,14.50
2018-05-15T01:58:43.153Z,14.50
2018-05-15T02:01:11.018Z,14.50
2018-05-15T02:03:38.885Z,14.50
2018-05-15T02:06:06.854Z,14.50
2018-05-15T02:08:34.721Z,14.50
2018-05-15T02:11:02.588Z,14.40
2018-05-15T02:13:30.455Z,14.40
2018-05-15T02:15:58.321Z,14.40
2018-05-15T02:18:26.187Z,14.40
2018-05-15T02:20:53.980Z,14.40
2018-05-15T02:23:21.843Z,14.50
2018-05-15T02:25:49.685Z,14.40
2018-05-15T02:28:17.552Z,14.40
2018-05-15T02:30:45.418Z,14.40
2018-05-15T02:33:13.312Z,14.40
2018-05-15T02:35:41.209Z,14.40
2018-05-15T02:38:09.223Z,14.50
2018-05-15T02:40:37.090Z,14.40
2018-05-15T02:43:04.957Z,14.40
2018-05-15T02:45:33.261Z,14.40
2018-05-15T02:48:01.202Z,14.30
2018-05-15T02:50:29.068Z,14.30
2018-05-15T02:52:56.935Z,14.30
2018-05-15T02:55:25.621Z,14.20
2018-05-15T02:57:53.500Z,14.20
2018-05-15T03:00:21.455Z,14.20
2018-05-15T03:02:49.321Z,14.20
2018-05-15T03:05:17.188Z,14.20
2018-05-15T03:07:45.064Z,14.20
2018-05-15T03:10:12.921Z,14.20
2018-05-15T03:12:40.789Z,14.20
2018-05-15T03:15:08.581Z,14.20
2018-05-15T03:17:36.517Z,14.10
2018-05-15T03:20:04.490Z,14.10
2018-05-15T03:22:32.357Z,14.10
2018-05-15T03:25:00.223Z,14.10
2018-05-15T03:27:28.090Z,14.00
2018-05-15T03:29:55.956Z,14.10
2018-05-15T03:32:23.748Z,14.10
2018-05-15T03:34:51.690Z,14.10
2018-05-15T03:37:19.556Z,14.10
2018-05-15T03:39:47.422Z,14.10
2018-05-15T03:42:15.244Z,14.10
2018-05-15T03:44:43.081Z,14.10
2018-05-15T03:47:10.850Z,14.10
2018-05-15T03:49:38.787Z,14.10
2018-05-15T03:52:06.653Z,14.20
2018-05-15T03:54:34.622Z,14.10
2018-05-15T03:57:02.490Z,14.10
2018-05-15T03:59:30.457Z,14.10
2018-05-15T04:02:10.130Z,14.00
2018-05-15T04:04:49.844Z,14.10
2018-05-15T04:07:29.692Z,14.10
2018-05-15T04:09:57.661Z,14.10
2018-05-15T04:12:25.528Z,14.10
2018-05-15T04:14:53.418Z,14.10
2018-05-15T04:17:22.080Z,14.10
2018-05-15T04:19:49.947Z,14.10
2018-05-15T04:22:17.813Z,14.10
2018-05-15T04:24:45.614Z,14.10
2018-05-15T04:27:14.265Z,14.00
2018-05-15T04:29:42.134Z,14.00
2018-05-15T04:32:09.996Z,14.00
2018-05-15T04:34:37.788Z,14.00
2018-05-15T04:37:05.730Z,14.00
2018-05-15T04:39:33.596Z,14.00
2018-05-15T04:42:01.467Z,14.00
2018-05-15T04:44:29.434Z,14.00
2018-05-15T04:46:57.401Z,14.00
2018-05-15T04:49:25.365Z,14.00
2018-05-15T04:51:53.954Z,13.90
2018-05-15T04:54:21.820Z,14.00
2018-05-15T04:56:49.687Z,14.00
2018-05-15T04:59:17.655Z,14.10
2018-05-15T05:01:45.522Z,14.10
2018-05-15T05:04:13.389Z,14.10
2018-05-15T05:06:41.154Z,14.10
2018-05-15T05:09:09.020Z,14.10
2018-05-15T05:11:36.886Z,14.10
2018-05-15T05:14:04.856Z,14.10
2018-05-15T05:16:32.722Z,14.10
2018-05-15T05:19:01.380Z,14.10
2018-05-15T05:21:29.274Z,14.10
2018-05-15T05:23:57.141Z,14.10
2018-05-15T05:26:25.110Z,14.10
2018-05-15T05:28:52.977Z,14.00
2018-05-15T05:31:20.768Z,14.00
2018-05-15T05:33:48.710Z,14.00
2018-05-15T05:36:16.501Z,14.00
2018-05-15T05:38:44.442Z,14.10
2018-05-15T05:41:12.309Z,14.10
2018-05-15T05:43:40.249Z,14.10
2018-05-15T05:46:08.145Z,14.10
2018-05-15T05:48:36.010Z,14.20
2018-05-15T05:51:03.877Z,14.20
2018-05-15T05:53:31.744Z,14.20
2018-05-15T05:55:59.611Z,14.20
2018-05-15T05:58:27.404Z,14.10
2018-05-15T06:00:55.346Z,14.10
2018-05-15T06:03:23.210Z,14.10
2018-05-15T06:05:51.077Z,14.10
2018-05-15T06:08:18.868Z,14.10
2018-05-15T06:10:46.812Z,14.10
2018-05-15T06:13:14.677Z,14.00
2018-05-15T06:15:42.468Z,14.10
2018-05-15T06:18:10.304Z,14.00
2018-05-15T06:20:38.240Z,14.00
2018-05-15T06:23:06.860Z,14.00
2018-05-15T06:25:34.652Z,14.00
2018-05-15T06:28:02.491Z,14.10
2018-05-15T06:30:30.358Z,14.10
2018-05-15T06:32:58.225Z,14.10
2018-05-15T06:35:26.091Z,14.10
2018-05-15T06:37:54.168Z,14.10
2018-05-15T06:40:22.137Z,14.10
2018-05-15T06:42:49.997Z,14.10
2018-05-15T06:45:17.864Z,14.10
2018-05-15T06:47:45.732Z,14.10
2018-05-15T06:50:13.597Z,14.20
2018-05-15T06:52:41.464Z,14.20
2018-05-15T06:55:09.433Z,14.20
2018-05-15T06:57:37.301Z,14.10
2018-05-15T07:00:05.167Z,14.10
2018-05-15T07:02:32.929Z,14.10
2018-05-15T07:05:01.105Z,13.90
2018-05-15T07:07:29.995Z,14.00
2018-05-15T07:09:57.862Z,14.00
2018-05-15T07:12:25.668Z,14.00
2018-05-15T07:14:54.189Z,14.10
2018-05-15T07:17:21.952Z,14.10
2018-05-15T07:19:49.721Z,14.20
2018-05-15T07:22:18.097Z,14.20
2018-05-15T07:24:45.908Z,14.20
2018-05-15T07:27:13.814Z,14.30
2018-05-15T07:29:42.359Z,14.20
2018-05-15T07:32:11.007Z,14.20
2018-05-15T07:34:38.781Z,14.20
2018-05-15T07:37:07.084Z,14.20
2018-05-15T07:39:35.027Z,14.20
2018-05-15T07:42:04.428Z,14.20
2018-05-15T07:44:32.295Z,14.20
2018-05-15T07:47:00.162Z,14.20
2018-05-15T07:49:27.944Z,14.10
2018-05-15T07:51:55.700Z,14.10
2018-05-15T07:54:23.484Z,14.10
2018-05-15T07:56:51.423Z,14.20
2018-05-15T07:59:19.289Z,14.20
2018-05-15T08:01:47.155Z,14.20
2018-05-15T08:04:14.919Z,14.20
2018-05-15T08:06:42.671Z,14.30
2018-05-15T08:09:10.429Z,14.20
2018-05-15T08:11:38.247Z,14.20
2018-05-15T08:14:06.861Z,14.30
2018-05-15T08:16:35.174Z,14.20
2018-05-15T08:19:02.981Z,14.20
2018-05-15T08:21:31.709Z,14.20
2018-05-15T08:23:59.590Z,14.10
2018-05-15T08:26:27.748Z,14.20
2018-05-15T08:28:55.561Z,14.20
2018-05-15T08:31:23.401Z,14.30
2018-05-15T08:33:51.207Z,14.30
2018-05-15T08:36:19.017Z,14.30
2018-05-15T08:38:47.017Z,14.30
2018-05-15T08:41:15.173Z,14.40
2018-05-15T08:43:43.549Z,14.20
2018-05-15T08:46:11.349Z,14.20
2018-05-15T08:48:40.005Z,14.10
2018-05-15T08:51:08.286Z,14.00
2018-05-15T08:53:36.020Z,14.00
2018-05-15T08:56:04.017Z,14.10
2018-05-15T08:58:31.802Z,14.10
2018-05-15T09:00:59.744Z,14.10
2018-05-15T09:03:27.581Z,14.10
2018-05-15T09:05:55.402Z,14.10
2018-05-15T09:08:23.341Z,14.10
2018-05-15T09:10:51.089Z,14.10
2018-05-15T09:13:18.897Z,14.00
2018-05-15T09:15:47.481Z,14.10
2018-05-15T09:18:15.506Z,14.10
2018-05-15T09:20:44.495Z,14.10
2018-05-15T09:23:12.245Z,14.00
2018-05-15T09:25:40.018Z,14.00
2018-05-15T09:28:07.797Z,14.10
2018-05-15T09:30:35.552Z,14.20
2018-05-15T09:33:03.332Z,14.20
2018-05-15T09:35:31.678Z,14.20
2018-05-15T09:37:59.586Z,14.20
2018-05-15T09:40:27.449Z,14.10
2018-05-15T09:42:55.270Z,14.00
2018-05-15T09:45:23.033Z,14.00
2018-05-15T09:47:50.946Z,14.10
2018-05-15T09:50:18.813Z,14.00
2018-05-15T09:52:46.781Z,14.00
2018-05-15T09:55:14.648Z,14.10
2018-05-15T09:57:42.514Z,14.00
2018-05-15T10:00:10.419Z,14.00
2018-05-15T10:02:39.091Z,14.20
2018-05-15T10:05:07.753Z,14.30
2018-05-15T10:07:35.643Z,14.30
2018-05-15T10:10:04.337Z,14.40
2018-05-15T10:12:32.990Z,14.40
2018-05-15T10:15:00.864Z,14.40
2018-05-15T10:17:28.724Z,14.40
2018-05-15T10:19:56.634Z,14.50
2018-05-15T10:22:25.204Z,14.70
2018-05-15T10:24:53.041Z,14.70
2018-05-15T10:27:20.903Z,14.80
2018-05-15T10:29:48.765Z,15.00
2018-05-15T10:32:16.746Z,15.10
2018-05-15T10:34:44.609Z,15.10
2018-05-15T10:37:12.578Z,15.20
2018-05-15T10:39:40.337Z,15.20
2018-05-15T10:42:08.113Z,15.20
2018-05-15T10:44:35.869Z,15.20
2018-05-15T10:47:04.407Z,15.30
2018-05-15T10:49:32.164Z,15.20
2018-05-15T10:52:00.734Z,15.40
2018-05-15T10:54:29.285Z,15.40
2018-05-15T10:56:57.042Z,15.30
2018-05-15T10:59:24.802Z,15.30
2018-05-15T11:01:52.563Z,15.40
2018-05-15T11:04:20.320Z,15.40
2018-05-15T11:06:48.089Z,15.30
2018-05-15T11:09:15.971Z,15.30
2018-05-15T11:11:43.732Z,15.20
2018-05-15T11:14:11.503Z,15.10
2018-05-15T11:16:39.248Z,15.20
2018-05-15T11:19:18.775Z,15.10
2018-05-15T11:21:58.158Z,15.10
2018-05-15T11:24:38.523Z,14.90
2018-05-15T11:27:07.079Z,15.00
2018-05-15T11:29:34.834Z,14.90
2018-05-15T11:32:02.639Z,14.90
2018-05-15T11:34:31.295Z,14.80
2018-05-15T11:36:59.065Z,14.80
2018-05-15T11:39:26.829Z,14.70
2018-05-15T11:41:54.616Z,14.60
2018-05-15T11:44:22.417Z,14.50
2018-05-15T11:46:50.197Z,14.50
2018-05-15T11:49:18.981Z,14.60
2018-05-15T11:51:46.804Z,14.50
2018-05-15T11:54:14.462Z,14.50
2018-05-15T11:56:42.407Z,14.50
2018-05-15T11:59:10.267Z,14.50
2018-05-15T12:01:38.236Z,14.40
2018-05-15T12:04:06.289Z,14.50
2018-05-15T12:06:34.978Z,14.50
2018-05-15T12:09:03.023Z,14.50
2018-05-15T12:11:31.649Z,14.50
2018-05-15T12:13:59.519Z,14.50
2018-05-15T12:16:27.418Z,14.50
2018-05-15T12:18:55.992Z,14.60
2018-05-15T12:21:23.934Z,14.60
2018-05-15T12:23:51.801Z,14.60
2018-05-15T12:26:19.667Z,14.70
2018-05-15T12:28:47.533Z,14.70
2018-05-15T12:31:15.326Z,14.70
2018-05-15T12:33:43.267Z,14.70
2018-05-15T12:36:11.236Z,14.60
2018-05-15T12:38:39.063Z,14.60
2018-05-15T12:41:06.968Z,14.60
2018-05-15T12:43:34.729Z,14.60
2018-05-15T12:46:02.599Z,14.60
2018-05-15T12:48:30.514Z,14.60
2018-05-15T12:50:59.081Z,14.60
2018-05-15T12:53:27.018Z,14.60
2018-05-15T12:55:54.885Z,14.70
2018-05-15T12:58:22.751Z,14.70
2018-05-15T13:00:50.591Z,14.80
2018-05-15T13:03:18.533Z,14.80
2018-05-15T13:05:47.172Z,14.90
2018-05-15T13:08:15.036Z,14.90
2018-05-15T13:10:42.903Z,14.90
2018-05-15T13:13:10.871Z,14.90
2018-05-15T13:15:38.741Z,14.80
2018-05-15T13:18:06.706Z,14.60
2018-05-15T13:20:34.576Z,14.60
2018-05-15T13:23:02.518Z,14.50
2018-05-15T13:25:30.510Z,14.40
2018-05-15T13:27:58.379Z,14.50
2018-05-15T13:30:26.245Z,14.50
2018-05-15T13:32:54.037Z,14.60
2018-05-15T13:35:21.963Z,14.60
2018-05-15T13:37:49.844Z,14.70
2018-05-15T13:40:17.596Z,14.70
2018-05-15T13:42:46.292Z,14.70
2018-05-15T13:45:14.159Z,14.70
2018-05-15T13:47:42.026Z,14.80
2018-05-15T13:50:10.003Z,14.70
2018-05-15T13:52:37.795Z,14.70
2018-05-15T13:55:06.444Z,14.80
2018-05-15T13:57:34.311Z,14.80
2018-05-15T14:00:02.177Z,14.80
2018-05-15T14:02:29.935Z,14.70
2018-05-15T14:04:57.807Z,14.60
2018-05-15T14:07:25.680Z,14.50
2018-05-15T14:09:53.541Z,14.50
2018-05-15T14:12:21.407Z,14.40
2018-05-15T14:14:49.277Z,14.40
2018-05-15T14:17:17.141Z,14.50
2018-05-15T14:19:45.110Z,14.50
2018-05-15T14:22:12.900Z,14.60
2018-05-15T14:24:41.582Z,14.50
2018-05-15T14:27:09.528Z,14.50
2018-05-15T14:29:38.213Z,14.50
2018-05-15T14:32:06.080Z,14.50
2018-05-15T14:34:34.058Z,14.50
2018-05-15T14:37:01.840Z,14.50
2018-05-15T14:39:29.782Z,14.60
2018-05-15T14:42:09.633Z,14.60
2018-05-15T14:44:37.495Z,14.60
2018-05-15T14:47:05.367Z,14.70
2018-05-15T14:49:33.229Z,14.70
2018-05-15T14:52:01.021Z,14.80
2018-05-15T14:54:28.860Z,14.80
2018-05-15T14:56:56.731Z,14.80
2018-05-15T14:59:24.593Z,14.70
2018-05-15T15:01:52.387Z,14.70
2018-05-15T15:04:21.039Z,14.70
2018-05-15T15:06:48.909Z,14.70
2018-05-15T15:09:16.700Z,14.70
2018-05-15T15:11:44.642Z,14.60
2018-05-15T15:14:13.262Z,14.70
2018-05-15T15:16:41.910Z,14.70
2018-05-15T15:19:09.773Z,14.70
2018-05-15T15:21:37.569Z,14.70
2018-05-15T15:24:05.511Z,14.70
2018-05-15T15:26:33.377Z,14.60
2018-05-15T15:29:01.169Z,14.70
2018-05-15T15:31:29.110Z,14.60
2018-05-15T15:33:56.977Z,14.70
2018-05-15T15:36:24.845Z,14.70
2018-05-15T15:38:52.712Z,14.70
2018-05-15T15:41:20.576Z,14.70
2018-05-15T15:43:48.466Z,14.60
2018-05-15T15:46:16.310Z,14.60
2018-05-15T15:48:44.176Z,14.70
2018-05-15T15:51:12.042Z,14.60
2018-05-15T15:53:39.909Z,14.60
2018-05-15T15:56:07.776Z,14.60
2018-05-15T15:58:35.528Z,14.50
2018-05-15T16:01:03.334Z,14.60
2018-05-15T16:03:31.273Z,14.60
2018-05-15T16:05:59.243Z,14.60
2018-05-15T16:08:27.032Z,14.50
2018-05-15T16:10:54.976Z,14.50
2018-05-15T16:13:22.841Z,14.50
2018-05-15T16:15:50.707Z,14.60
2018-05-15T16:18:18.574Z,14.60
2018-05-15T16:20:46.440Z,14.60
2018-05-15T16:23:14.311Z,14.60
2018-05-15T16:25:42.174Z,14.50
2018-05-15T16:28:10.044Z,14.50
2018-05-15T16:30:37.907Z,14.40
2018-05-15T16:33:05.773Z,14.40
2018-05-15T16:35:33.564Z,14.40
2018-05-15T16:38:01.507Z,14.30
2018-05-15T16:40:29.374Z,14.30
2018-05-15T16:42:57.164Z,14.30
2018-05-15T16:45:24.928Z,14.30
2018-05-15T16:47:52.877Z,14.30
2018-05-15T16:50:20.661Z,14.30
2018-05-15T16:52:48.606Z,14.20
2018-05-15T16:55:16.471Z,14.20
2018-05-15T16:57:44.261Z,14.20
2018-05-15T17:00:12.202Z,14.20
2018-05-15T17:02:40.073Z,14.10
2018-05-15T17:05:07.864Z,14.10
2018-05-15T17:07:36.518Z,14.10
2018-05-15T17:10:04.487Z,14.10
2018-05-15T17:12:32.360Z,14.10
2018-05-15T17:15:00.220Z,14.00
2018-05-15T17:17:28.088Z,14.00
2018-05-15T17:19:55.954Z,14.10
2018-05-15T17:22:23.824Z,14.10
2018-05-15T17:24:51.687Z,14.10
2018-05-15T17:27:19.553Z,14.00
2018-05-15T17:29:47.419Z,14.00
2018-05-15T17:32:15.389Z,13.90
2018-05-15T17:34:43.255Z,13.90
2018-05-15T17:37:11.121Z,13.80
2018-05-15T17:39:38.988Z,13.80
2018-05-15T17:42:06.855Z,13.70
2018-05-15T17:44:35.540Z,13.50
2018-05-15T17:47:03.715Z,13.50
2018-05-15T17:49:31.481Z,13.50
2018-05-15T17:51:59.553Z,13.40
2018-05-15T17:54:28.220Z,13.30
2018-05-15T17:56:56.102Z,13.30
2018-05-15T17:59:23.988Z,13.20
2018-05-15T18:01:51.835Z,13.20
2018-05-15T18:04:19.592Z,13.20
2018-05-15T18:06:47.350Z,13.20
2018-05-15T18:09:15.228Z,13.20
2018-05-15T18:11:43.020Z,13.10
2018-05-15T18:14:10.962Z,13.10
2018-05-15T18:16:38.829Z,13.10
2018-05-15T18:19:07.352Z,13.10
2018-05-15T18:21:35.921Z,13.10
2018-05-15T18:24:03.789Z,13.00
2018-05-15T18:26:31.729Z,13.10
2018-05-15T18:28:59.520Z,13.00
2018-05-15T18:31:27.474Z,13.10
2018-05-15T18:33:55.495Z,13.10
2018-05-15T18:36:23.408Z,13.10
2018-05-15T18:38:51.197Z,13.10
2018-05-15T18:41:19.713Z,13.10
2018-05-15T18:43:47.488Z,13.10
2018-05-15T18:46:15.249Z,13.10
2018-05-15T18:48:43.003Z,13.10
2018-05-15T18:51:10.757Z,13.10
2018-05-15T18:53:38.513Z,13.20
2018-05-15T18:56:07.033Z,13.10
2018-05-15T18:58:34.785Z,13.20
2018-05-15T19:01:02.547Z,13.10
2018-05-15T19:03:30.300Z,13.00
2018-05-15T19:05:58.084Z,12.90
2018-05-15T19:08:25.930Z,13.00
2018-05-15T19:10:53.688Z,12.90
2018-05-15T19:13:22.197Z,12.80
2018-05-15T19:15:50.013Z,12.80
2018-05-15T19:18:17.876Z,12.70
2018-05-15T19:20:45.817Z,12.60
2018-05-15T19:23:13.684Z,12.60
2018-05-15T19:25:41.547Z,12.50
2018-05-15T19:28:10.265Z,12.40
2018-05-15T19:30:38.309Z,12.40
2018-05-15T19:33:06.129Z,12.40
2018-05-15T19:35:39.364Z,12.50
2018-05-15T19:38:07.121Z,12.50
2018-05-15T19:40:40.354Z,12.50
2018-05-15T19:43:08.118Z,12.50
2018-05-15T19:45:35.877Z,12.40
2018-05-15T19:48:03.689Z,12.50
2018-05-15T19:50:31.478Z,12.50
2018-05-15T19:52:59.229Z,12.60
2018-05-15T19:55:27.039Z,12.60
2018-05-15T19:57:54.978Z,12.60
2018-05-15T20:00:22.845Z,12.70
2018-05-15T20:02:50.636Z,12.60
2018-05-15T20:05:18.580Z,12.60
2018-05-15T20:07:46.444Z,12.60
2018-05-15T20:10:14.215Z,12.60
2018-05-15T20:12:41.975Z,12.60
2018-05-15T20:15:09.732Z,12.60
2018-05-15T20:17:37.480Z,12.70
2018-05-15T20:20:05.333Z,12.60
2018-05-15T20:22:33.153Z,12.60
2018-05-15T20:25:00.905Z,12.60
2018-05-15T20:27:29.612Z,12.60
2018-05-15T20:29:57.374Z,12.60
2018-05-15T20:32:25.356Z,12.70
2018-05-15T20:34:53.897Z,12.70
2018-05-15T20:37:21.691Z,12.60
2018-05-15T20:39:49.445Z,12.70
2018-05-15T20:42:17.889Z,12.70
2018-05-15T20:44:46.745Z,12.70
2018-05-15T20:47:15.257Z,12.70
2018-05-15T20:49:43.614Z,12.70
2018-05-15T20:52:11.414Z,12.80
2018-05-15T20:54:39.179Z,12.70
2018-05-15T20:57:07.154Z,12.70
2018-05-15T20:59:35.035Z,12.80
2018-05-15T21:02:02.900Z,12.80
2018-05-15T21:04:30.728Z,12.80
2018-05-15T21:06:59.301Z,12.80
2018-05-15T21:09:27.888Z,12.80
2018-05-15T21:11:55.655Z,12.90
2018-05-15T21:14:23.411Z,12.80
2018-05-15T21:16:51.905Z,12.80
2018-05-15T21:19:20.197Z,12.80
2018-05-15T21:21:48.244Z,12.80
2018-05-15T21:24:15.997Z,12.80
2018-05-15T21:26:44.084Z,12.80
2018-05-15T21:29:12.420Z,12.80
2018-05-15T21:31:40.797Z,12.90
2018-05-15T21:34:09.081Z,12.90
2018-05-15T21:36:37.914Z,13.00
2018-05-15T21:39:05.857Z,13.00
2018-05-15T21:41:34.314Z,13.00
2018-05-15T21:44:02.089Z,13.00
2018-05-15T21:46:31.034Z,13.00
2018-05-15T21:48:58.850Z,12.90
2018-05-15T21:51:27.949Z,12.90
2018-05-15T21:53:56.955Z,12.90
2018-05-15T21:56:24.708Z,12.90
2018-05-15T21:58:52.568Z,12.90
2018-05-15T22:01:21.225Z,12.80
2018-05-15T22:03:49.040Z,12.80
2018-05-15T22:06:16.798Z,12.80
2018-05-15T22:08:44.553Z,12.90
2018-05-15T22:11:14.415Z,13.00
2018-05-15T22:13:53.921Z,13.00
2018-05-15T22:16:33.808Z,13.00
2018-05-15T22:19:13.651Z,13.10
2018-05-15T22:21:53.498Z,13.10
2018-05-15T22:24:26.214Z,13.10
2018-05-15T22:26:54.864Z,13.00
2018-05-15T22:29:22.731Z,13.00
2018-05-15T22:31:50.480Z,13.10
2018-05-15T22:34:18.362Z,13.10
2018-05-15T22:36:46.228Z,13.00
2018-05-15T22:39:14.094Z,13.10
2018-05-15T22:41:41.918Z,13.10
2018-05-15T22:44:09.827Z,13.10
2018-05-15T22:46:37.694Z,13.10
2018-05-15T22:49:05.562Z,13.10
2018-05-15T22:51:33.427Z,13.00
2018-05-15T22:54:01.226Z,13.00
2018-05-15T22:56:29.878Z,13.00
2018-05-15T22:58:57.845Z,13.00
2018-05-15T23:01:25.713Z,13.00
2018-05-15T23:03:53.579Z,13.00
2018-05-15T23:06:21.455Z,13.00
2018-05-15T23:08:49.517Z,13.00
2018-05-15T23:11:17.310Z,13.00
2018-05-15T23:13:45.250Z,13.00
2018-05-15T23:16:13.079Z,13.00
2018-05-15T23:18:41.623Z,13.00
2018-05-15T23:21:09.567Z,13.00
2018-05-15T23:23:37.433Z,13.00
2018-05-15T23:26:05.303Z,13.00
2018-05-15T23:28:33.161Z,13.00
2018-05-15T23:31:01.033Z,13.00
2018-05-15T23:33:28.824Z,13.00
2018-05-15T23:35:56.666Z,13.00
2018-05-15T23:38:24.528Z,13.00
2018-05-15T23:40:52.323Z,13.00
2018-05-15T23:43:20.262Z,13.10
2018-05-15T23:45:48.070Z,13.00
2018-05-15T23:48:16.713Z,13.10
2018-05-15T23:50:44.579Z,13.00
2018-05-15T23:53:12.373Z,13.00
2018-05-15T23:55:40.273Z,13.10
2018-05-15T23:58:08.104Z,13.10
